Prosperity, SC

10:41 AM EDT on August 31, 2015 (GMT -0400)
Lake Murray | | Change Station
CLOSE
Current Station
Personal Weather Station
Location: Prosperity, SC
Elevation: 381 ft
Nearby Weather Stations

Elev 381 ft 34.12 °N, 81.49 °W | Updated 10 minutes ago

Overcast
Overcast
70.0 °F
Feels Like 70.0 °F
N
0.0
Wind Variable Wind from SW

Today
High -- | Low -- °F
--% Chance of Precip.
Yesterday
High -- | Low -- °F
Precip. -- in
6:58 AM 7:53 PM
Waning Gibbous, 95% visible
Pressure 30.16 in
Visibility 10.0 miles
Clouds Overcast 1100 ft
Dew Point 70 °F
Humidity 99%
Rainfall 0.00 in
Snow Depth Not available.
UV 2 out of 12
Pollen 5.00 out of 12
Air Quality Not available.
Flu Activity Not available.
METAR KEOE 311415Z AUTO 05006KT 10SM OVC011 22/19 A3016 RMK AO2 LTG DSNT E AND SE
Pressure 30.16 in
Visibility 10.0 miles
Clouds Overcast 1100 ft
Dew Point 70 °F
Humidity 99%
Rainfall 0.00 in
Snow Depth Not available.
UV 2 out of 12
Pollen 5.00 out of 12
Air Quality Not available.
Flu Activity Not available.
METAR KEOE 311415Z AUTO 05006KT 10SM OVC011 22/19 A3016 RMK AO2 LTG DSNT E AND SE

10-Day Weather Forecast

×

Almanac

Astronomy

Aug. 31, 2015 Rise Set
Actual Time
Civil Twilight
Nautical Twilight
Astronomical Twilight
Moon
Length of Visible Light
Length of Day
Tomorrow will be .
, % of the Moon is Illuminated

Today's Extremes

State Highs State Lows

Community

WunderPhotos

Upload Photos

1,851,254 photos uploaded!

WunderBlogs® & News

Nearby

Air Quality

  Air Quality AQ Index Pollutant
Not available.

Snow Depth

Station Depth Elevation

Earthquake Activity

City Distance Mag. Time & Date
Minimum magnitude displayed is 2.5.

Coastal Water Temperatures

Place Temperature

Stations

Nearby Weather Stations

Station Location Temp. Windchill Dew Point Humidity Wind Precip. Elev Updated Type